createdAt,value
2017-11-22T00:01:32.798Z,10.67
2017-11-22T00:04:00.247Z,8.07
2017-11-22T00:06:27.753Z,10.50
2017-11-22T00:08:55.969Z,9.87
2017-11-22T00:11:23.429Z,10.33
2017-11-22T00:13:50.889Z,10.03
2017-11-22T00:16:18.358Z,7.80
2017-11-22T00:18:45.835Z,8.57
2017-11-22T00:21:13.295Z,8.07
2017-11-22T00:23:40.768Z,8.33
2017-11-22T00:26:08.229Z,8.20
2017-11-22T00:28:35.692Z,9.83
2017-11-22T00:31:03.149Z,9.87
2017-11-22T00:33:30.607Z,10.30
2017-11-22T00:35:58.061Z,10.83
2017-11-22T00:38:25.527Z,9.97
2017-11-22T00:40:52.991Z,8.53
2017-11-22T00:43:20.470Z,10.13
2017-11-22T00:45:47.916Z,9.57
2017-11-22T00:48:15.387Z,7.97
2017-11-22T00:50:42.839Z,10.33
2017-11-22T00:53:10.302Z,8.47
2017-11-22T00:55:37.767Z,9.07
2017-11-22T00:58:05.228Z,8.83
2017-11-22T01:00:32.679Z,7.43
2017-11-22T01:03:00.139Z,6.90
2017-11-22T01:05:27.592Z,8.20
2017-11-22T01:07:55.055Z,11.00
2017-11-22T01:10:22.511Z,7.73
2017-11-22T01:12:49.982Z,7.80
2017-11-22T01:15:17.445Z,7.17
2017-11-22T01:17:44.906Z,9.37
2017-11-22T01:20:12.361Z,7.57
2017-11-22T01:22:39.824Z,7.13
2017-11-22T01:25:07.298Z,8.47
2017-11-22T01:27:34.767Z,8.73
2017-11-22T01:30:02.223Z,9.83
2017-11-22T01:32:29.708Z,8.63
2017-11-22T01:34:57.165Z,8.33
2017-11-22T01:37:24.616Z,8.60
2017-11-22T01:39:52.090Z,9.50
2017-11-22T01:42:19.534Z,8.83
2017-11-22T01:44:47.007Z,7.57
2017-11-22T01:47:14.464Z,8.83
2017-11-22T01:49:41.929Z,12.13
2017-11-22T01:52:09.399Z,11.27
2017-11-22T01:54:36.863Z,9.10
2017-11-22T01:57:04.339Z,8.47
2017-11-22T01:59:31.835Z,9.73
2017-11-22T02:02:00.068Z,8.30
2017-11-22T02:04:27.539Z,11.30
2017-11-22T02:06:55.026Z,8.27
2017-11-22T02:09:22.486Z,9.13
2017-11-22T02:11:49.951Z,8.50
2017-11-22T02:14:17.419Z,10.50
2017-11-22T02:16:44.877Z,9.73
2017-11-22T02:19:12.342Z,15.00
2017-11-22T02:21:39.804Z,9.90
2017-11-22T02:24:07.282Z,7.63
2017-11-22T02:26:35.502Z,7.87
2017-11-22T02:29:02.980Z,9.93
2017-11-22T02:31:30.460Z,11.57
2017-11-22T02:33:57.931Z,8.00
2017-11-22T02:36:25.394Z,9.70
2017-11-22T02:38:52.866Z,8.17
2017-11-22T02:41:20.324Z,8.40
2017-11-22T02:43:47.792Z,7.83
2017-11-22T02:46:16.062Z,8.00
2017-11-22T02:48:43.524Z,8.43
2017-11-22T02:51:10.980Z,8.87
2017-11-22T02:53:38.458Z,9.33
2017-11-22T02:56:05.935Z,11.73
2017-11-22T02:58:34.174Z,9.20
2017-11-22T03:01:01.636Z,7.67
2017-11-22T03:03:29.093Z,10.40
2017-11-22T03:05:56.582Z,8.50
2017-11-22T03:08:24.801Z,10.43
2017-11-22T03:10:52.281Z,10.23
2017-11-22T03:13:19.758Z,10.87
2017-11-22T03:15:47.221Z,10.03
2017-11-22T03:18:14.678Z,7.90
2017-11-22T03:20:42.140Z,11.83
2017-11-22T03:23:09.600Z,7.73
2017-11-22T03:25:37.074Z,7.47
2017-11-22T03:28:04.524Z,7.87
2017-11-22T03:30:31.997Z,8.10
2017-11-22T03:32:59.458Z,9.07
2017-11-22T03:35:26.927Z,8.37
2017-11-22T03:37:54.385Z,7.63
2017-11-22T03:40:21.850Z,7.20
2017-11-22T03:42:49.311Z,6.40
2017-11-22T03:45:16.760Z,7.83
2017-11-22T03:47:44.230Z,9.87
2017-11-22T03:50:15.627Z,9.97
2017-11-22T03:52:43.094Z,8.17
2017-11-22T03:55:10.549Z,7.50
2017-11-22T03:57:38.018Z,9.37
2017-11-22T04:00:05.483Z,7.93
2017-11-22T04:02:34.854Z,8.67
2017-11-22T04:05:03.083Z,9.23
2017-11-22T04:07:31.468Z,6.57
2017-11-22T04:09:58.934Z,9.53
2017-11-22T04:12:26.402Z,12.50
2017-11-22T04:14:53.877Z,11.57
2017-11-22T04:17:21.359Z,8.40
2017-11-22T04:19:50.743Z,11.60
2017-11-22T04:22:18.208Z,14.60
2017-11-22T04:24:45.687Z,11.83
2017-11-22T04:27:13.148Z,14.67
2017-11-22T04:29:40.633Z,14.43
2017-11-22T04:32:08.874Z,13.07
2017-11-22T04:34:36.347Z,10.73
2017-11-22T04:37:03.845Z,14.57
2017-11-22T04:39:31.322Z,11.63
2017-11-22T04:59:16.366Z,10.17
2017-11-22T05:01:43.832Z,10.50
2017-11-22T05:04:11.299Z,9.90
2017-11-22T05:06:39.537Z,8.50
2017-11-22T05:09:06.992Z,9.10
2017-11-22T05:11:35.257Z,8.93
2017-11-22T05:14:02.724Z,9.03
2017-11-22T05:33:47.837Z,10.30
2017-11-22T05:36:15.280Z,9.00
2017-11-22T05:38:42.773Z,11.00
2017-11-22T05:41:10.255Z,10.50
2017-11-22T05:43:37.733Z,18.97
2017-11-22T05:46:05.970Z,15.83
2017-11-22T05:48:34.222Z,12.27
2017-11-22T06:08:17.977Z,11.10
2017-11-22T06:10:45.489Z,12.73
2017-11-22T06:13:12.992Z,14.17
2017-11-22T06:15:41.218Z,12.93
2017-11-22T06:18:08.695Z,15.23
2017-11-22T06:20:36.164Z,15.87
2017-11-22T06:23:03.664Z,14.43
2017-11-22T06:42:50.578Z,13.93
2017-11-22T06:45:18.032Z,13.70
2017-11-22T06:47:45.509Z,15.73
2017-11-22T06:50:12.963Z,11.13
2017-11-22T06:52:40.426Z,11.20
2017-11-22T06:55:07.898Z,12.97
2017-11-22T06:57:35.356Z,11.30
2017-11-22T07:00:02.836Z,12.80
2017-11-22T07:02:36.073Z,10.27
2017-11-22T07:05:03.537Z,13.40
2017-11-22T07:07:31.771Z,14.53
2017-11-22T07:09:59.256Z,13.80
2017-11-22T07:12:27.492Z,11.50
2017-11-22T07:14:54.953Z,12.70
2017-11-22T07:17:28.179Z,14.17
2017-11-22T07:19:56.402Z,14.23
2017-11-22T07:22:24.627Z,16.70
2017-11-22T07:24:52.092Z,12.63
2017-11-22T07:27:19.556Z,15.67
2017-11-22T07:29:47.030Z,11.27
2017-11-22T07:32:15.273Z,11.73
2017-11-22T07:34:42.745Z,11.93
2017-11-22T07:37:15.969Z,13.93
2017-11-22T07:39:44.201Z,10.63
2017-11-22T07:42:11.675Z,11.07
2017-11-22T07:44:39.132Z,11.97
2017-11-22T07:47:11.394Z,10.63
2017-11-22T07:49:38.862Z,12.57
2017-11-22T07:52:12.027Z,13.73
2017-11-22T07:54:39.519Z,12.23
2017-11-22T07:57:10.545Z,11.03
2017-11-22T07:59:38.039Z,14.97
2017-11-22T08:02:05.482Z,11.00
2017-11-22T08:04:33.713Z,12.67
2017-11-22T08:07:01.947Z,15.10
2017-11-22T08:09:29.427Z,11.67
2017-11-22T08:11:56.890Z,9.77
2017-11-22T08:14:24.350Z,13.17
2017-11-22T08:16:51.823Z,14.43
2017-11-22T08:19:19.287Z,12.67
2017-11-22T08:21:46.804Z,12.27
2017-11-22T08:24:14.269Z,13.17
2017-11-22T08:26:41.722Z,11.67
2017-11-22T08:29:09.210Z,11.37
2017-11-22T08:31:36.679Z,10.13
2017-11-22T08:34:04.145Z,11.93
2017-11-22T08:36:33.120Z,10.57
2017-11-22T08:39:00.582Z,10.40
2017-11-22T08:41:28.042Z,11.70
2017-11-22T08:43:55.530Z,9.77
2017-11-22T08:46:22.990Z,15.60
2017-11-22T08:48:51.250Z,9.93
2017-11-22T08:51:18.713Z,13.00
2017-11-22T08:53:46.171Z,10.60
2017-11-22T08:56:19.245Z,11.07
2017-11-22T08:58:46.711Z,12.50
2017-11-22T09:01:14.188Z,10.53
2017-11-22T09:03:44.464Z,12.53
2017-11-22T09:06:18.296Z,10.87
2017-11-22T09:08:45.754Z,10.00
2017-11-22T09:11:13.255Z,11.60
2017-11-22T09:13:40.713Z,10.47
2017-11-22T09:16:08.206Z,8.63
2017-11-22T09:35:55.204Z,13.33
2017-11-22T09:38:23.445Z,14.37
2017-11-22T09:40:50.908Z,9.57
2017-11-22T09:43:18.381Z,12.50
2017-11-22T09:45:45.840Z,9.73
2017-11-22T09:48:13.326Z,10.50
2017-11-22T09:50:41.550Z,9.40
2017-11-22T09:53:09.020Z,12.27
2017-11-22T09:55:36.490Z,10.43
2017-11-22T09:58:03.948Z,11.20
2017-11-22T10:00:31.435Z,11.23
2017-11-22T10:02:58.894Z,10.00
2017-11-22T10:05:26.372Z,10.67
2017-11-22T10:07:53.818Z,9.50
2017-11-22T10:10:21.289Z,11.30
2017-11-22T10:12:48.746Z,14.47
2017-11-22T10:15:16.220Z,11.03
2017-11-22T10:17:43.673Z,11.90
2017-11-22T10:20:16.809Z,12.07
2017-11-22T10:22:45.054Z,10.17
2017-11-22T10:25:12.533Z,10.63
2017-11-22T10:27:43.731Z,10.40
2017-11-22T10:30:13.151Z,12.03
2017-11-22T10:32:55.499Z,12.00
2017-11-22T10:35:22.964Z,10.33
2017-11-22T10:37:51.191Z,12.93
2017-11-22T10:40:18.642Z,12.70
2017-11-22T10:42:46.107Z,11.03
2017-11-22T10:45:13.600Z,9.87
2017-11-22T10:47:41.082Z,9.00
2017-11-22T10:50:09.312Z,10.27
2017-11-22T10:52:36.784Z,9.63
2017-11-22T10:55:04.277Z,10.03
2017-11-22T10:57:32.509Z,9.97
2017-11-22T10:59:59.999Z,11.50
2017-11-22T11:02:27.469Z,12.00
2017-11-22T11:04:54.953Z,10.97
2017-11-22T11:07:23.177Z,11.23
2017-11-22T11:09:50.653Z,7.43
2017-11-22T11:12:18.131Z,9.10
2017-11-22T11:14:45.600Z,10.40
2017-11-22T11:17:13.071Z,10.13
2017-11-22T11:19:41.326Z,7.73
2017-11-22T11:22:08.800Z,9.67
2017-11-22T11:24:36.275Z,7.73
2017-11-22T11:27:03.737Z,9.27
2017-11-22T11:29:31.961Z,7.60
2017-11-22T11:32:00.220Z,7.47
2017-11-22T11:34:28.457Z,9.47
2017-11-22T11:36:55.954Z,9.00
2017-11-22T11:39:24.197Z,8.83
2017-11-22T11:41:51.742Z,9.43
2017-11-22T11:44:19.212Z,5.40
2017-11-22T11:46:46.678Z,8.37
2017-11-22T11:49:14.161Z,6.93
2017-11-22T11:51:41.637Z,9.77
2017-11-22T11:54:09.908Z,8.73
2017-11-22T11:56:37.375Z,7.10
2017-11-22T11:59:04.859Z,6.87
2017-11-22T12:01:33.097Z,6.47
2017-11-22T12:04:00.562Z,8.27
2017-11-22T12:06:28.050Z,9.60
2017-11-22T12:08:56.330Z,10.30
2017-11-22T12:11:23.807Z,7.40
2017-11-22T12:13:52.044Z,6.33
2017-11-22T12:16:19.517Z,7.40
2017-11-22T12:18:46.982Z,9.70
2017-11-22T12:21:14.450Z,5.80
2017-11-22T12:23:41.914Z,9.17
2017-11-22T12:26:09.398Z,9.60
2017-11-22T12:28:37.639Z,8.40
2017-11-22T12:31:05.118Z,9.13
2017-11-22T12:33:32.589Z,6.53
2017-11-22T12:36:00.047Z,6.13
2017-11-22T12:38:27.520Z,8.80
2017-11-22T12:40:55.753Z,8.43
2017-11-22T12:43:23.231Z,8.10
2017-11-22T12:45:50.685Z,8.33
2017-11-22T12:48:18.163Z,7.90
2017-11-22T12:50:45.630Z,8.10
2017-11-22T12:53:13.108Z,9.57
2017-11-22T12:55:40.579Z,7.23
2017-11-22T12:58:12.752Z,7.07
2017-11-22T13:00:41.007Z,10.17
2017-11-22T13:03:08.466Z,10.03
2017-11-22T13:05:35.947Z,8.07
2017-11-22T13:08:03.394Z,10.50
2017-11-22T13:10:33.673Z,8.53
2017-11-22T13:13:01.160Z,11.63
2017-11-22T13:15:28.629Z,9.50
2017-11-22T13:17:56.085Z,9.30
2017-11-22T13:20:23.551Z,7.90
2017-11-22T13:22:51.013Z,15.63
2017-11-22T13:25:18.488Z,9.33
2017-11-22T13:27:45.960Z,8.63
2017-11-22T13:30:13.448Z,6.60
2017-11-22T13:32:41.693Z,7.40
2017-11-22T13:35:09.187Z,8.53
2017-11-22T13:37:37.422Z,7.47
2017-11-22T13:40:04.874Z,5.40
2017-11-22T13:42:32.376Z,8.47
2017-11-22T13:44:59.877Z,7.20
2017-11-22T13:47:27.358Z,7.60
2017-11-22T13:49:54.802Z,7.33
2017-11-22T13:52:22.275Z,8.27
2017-11-22T13:54:49.739Z,9.17
2017-11-22T13:57:18.011Z,7.53
2017-11-22T13:59:45.481Z,6.70
2017-11-22T14:02:12.947Z,6.87
2017-11-22T14:04:40.437Z,6.73
2017-11-22T14:07:07.896Z,6.90
2017-11-22T14:09:35.358Z,8.17
2017-11-22T14:12:02.837Z,6.47
2017-11-22T14:14:30.334Z,7.60
2017-11-22T14:16:58.547Z,6.27
2017-11-22T14:19:26.768Z,9.60
2017-11-22T14:21:54.234Z,8.63
2017-11-22T14:24:21.688Z,6.17
2017-11-22T14:26:49.158Z,7.17
2017-11-22T14:46:34.199Z,9.97
2017-11-22T14:49:02.441Z,8.47
2017-11-22T14:51:29.893Z,7.63
2017-11-22T14:53:57.355Z,11.33
2017-11-22T14:56:24.813Z,9.30
2017-11-22T14:58:52.298Z,8.00
2017-11-22T15:01:19.750Z,7.00
2017-11-22T15:03:47.219Z,7.77
2017-11-22T15:06:14.700Z,7.13
2017-11-22T15:08:42.183Z,9.27
2017-11-22T15:11:10.424Z,7.70
2017-11-22T15:13:37.887Z,9.10
2017-11-22T15:16:05.380Z,5.50
2017-11-22T15:18:33.640Z,6.60
2017-11-22T15:21:01.123Z,7.13
2017-11-22T15:23:29.355Z,10.50
2017-11-22T15:25:56.814Z,8.53
2017-11-22T15:28:24.263Z,9.23
2017-11-22T15:30:51.746Z,7.57
2017-11-22T15:33:19.223Z,9.30
2017-11-22T15:35:46.724Z,9.80
2017-11-22T15:38:14.207Z,8.13
2017-11-22T15:40:41.675Z,7.07
2017-11-22T15:43:09.170Z,18.13
2017-11-22T15:45:36.637Z,20.20
2017-11-22T15:48:04.112Z,12.60
2017-11-22T15:50:31.577Z,8.33
2017-11-22T15:52:59.864Z,9.57
2017-11-22T15:55:27.311Z,12.27
2017-11-22T15:57:54.780Z,12.50
2017-11-22T16:00:22.235Z,11.33
2017-11-22T16:02:49.731Z,14.00
2017-11-22T16:05:18.008Z,14.50
2017-11-22T16:07:46.233Z,9.83
2017-11-22T16:10:13.711Z,11.07
2017-11-22T16:12:41.171Z,11.90
2017-11-22T16:15:08.654Z,12.83
2017-11-22T16:17:36.118Z,10.20
2017-11-22T16:20:03.576Z,9.13
2017-11-22T16:22:31.052Z,12.43
2017-11-22T16:24:59.363Z,13.10
2017-11-22T16:27:26.837Z,10.60
2017-11-22T16:29:54.338Z,12.00
2017-11-22T16:32:21.784Z,12.33
2017-11-22T16:34:49.308Z,16.10
2017-11-22T16:37:16.811Z,14.73
2017-11-22T16:39:44.378Z,12.10
2017-11-22T16:42:11.886Z,8.07
2017-11-22T16:44:40.114Z,8.90
2017-11-22T16:47:07.596Z,7.87
2017-11-22T16:49:35.072Z,8.10
2017-11-22T16:52:02.566Z,8.63
2017-11-22T16:54:30.831Z,7.47
2017-11-22T16:56:59.111Z,7.30
2017-11-22T16:59:27.344Z,8.97
2017-11-22T17:19:11.344Z,7.40
2017-11-22T17:38:59.000Z,9.17
2017-11-22T17:41:26.458Z,8.13
2017-11-22T17:43:54.696Z,10.67
2017-11-22T17:46:22.155Z,8.80
2017-11-22T17:51:24.217Z,10.40
2017-11-22T17:53:51.736Z,11.83
2017-11-22T17:56:19.238Z,10.13
2017-11-22T17:58:46.737Z,11.60
2017-11-22T18:01:14.265Z,9.63
2017-11-22T18:03:41.790Z,13.67
2017-11-22T18:06:09.319Z,9.37
2017-11-22T18:08:36.768Z,11.87
2017-11-22T18:11:04.294Z,13.27
2017-11-22T18:13:31.737Z,11.20
2017-11-22T18:15:59.268Z,12.47
2017-11-22T18:18:27.145Z,12.53
2017-11-22T18:20:54.671Z,12.53
2017-11-22T18:23:22.168Z,10.90
2017-11-22T18:25:49.716Z,9.93
2017-11-22T18:28:17.968Z,9.57
2017-11-22T18:30:45.447Z,11.83
2017-11-22T18:33:12.964Z,10.30
2017-11-22T18:35:41.204Z,10.97
2017-11-22T18:38:08.727Z,12.43
2017-11-22T18:40:36.213Z,11.77
2017-11-22T18:43:04.536Z,10.00
2017-11-22T18:45:32.031Z,11.57
2017-11-22T18:47:59.508Z,11.53
2017-11-22T18:50:26.969Z,9.53
2017-11-22T18:52:54.538Z,10.97
2017-11-22T18:55:22.041Z,11.13
2017-11-22T18:57:49.544Z,9.93
2017-11-22T19:00:17.787Z,7.07
2017-11-22T19:02:45.291Z,9.50
2017-11-22T19:05:12.778Z,7.87
2017-11-22T19:07:40.258Z,10.10
2017-11-22T19:10:08.574Z,10.07
2017-11-22T19:12:36.865Z,11.37
2017-11-22T19:15:05.102Z,9.90
2017-11-22T19:17:32.610Z,11.53
2017-11-22T19:20:00.899Z,12.97
2017-11-22T19:22:29.168Z,12.50
2017-11-22T19:24:57.452Z,10.63
2017-11-22T19:27:25.746Z,9.60
2017-11-22T19:29:54.033Z,12.73
2017-11-22T19:32:21.532Z,9.93
2017-11-22T19:34:49.057Z,9.43
2017-11-22T19:37:16.588Z,10.93
2017-11-22T19:39:44.112Z,10.00
2017-11-22T19:42:11.605Z,9.40
2017-11-22T19:44:39.111Z,8.60
2017-11-22T19:47:06.632Z,10.83
2017-11-22T19:49:34.143Z,11.03
2017-11-22T19:52:01.666Z,9.13
2017-11-22T19:54:29.163Z,8.73
2017-11-22T19:56:56.630Z,8.43
2017-11-22T19:59:24.142Z,8.67
2017-11-22T20:01:52.421Z,8.13
2017-11-22T20:04:20.713Z,8.00
2017-11-22T20:07:00.104Z,7.37
2017-11-22T20:09:27.614Z,8.23
2017-11-22T20:11:55.141Z,7.17
2017-11-22T20:14:22.637Z,7.70
2017-11-22T20:16:50.916Z,7.77
2017-11-22T20:19:19.185Z,7.43
2017-11-22T20:21:47.525Z,8.83
2017-11-22T20:24:15.036Z,9.93
2017-11-22T20:44:02.982Z,7.20
2017-11-22T20:46:30.498Z,7.03
2017-11-22T20:48:58.001Z,8.17
2017-11-22T21:08:41.488Z,7.43
2017-11-22T21:11:08.960Z,9.53
2017-11-22T21:13:36.471Z,8.53
2017-11-22T21:16:03.978Z,7.10
2017-11-22T21:18:31.480Z,9.57
2017-11-22T21:20:58.964Z,9.47
2017-11-22T21:23:26.494Z,8.60
2017-11-22T21:25:54.016Z,6.50
2017-11-22T21:30:56.158Z,6.63
2017-11-22T21:33:23.663Z,7.10
2017-11-22T21:35:51.953Z,8.70
2017-11-22T21:38:20.177Z,6.80
2017-11-22T21:40:47.700Z,9.57
2017-11-22T21:43:15.216Z,25.63
2017-11-22T21:48:16.762Z,12.40
2017-11-22T21:50:44.268Z,7.87
2017-11-22T21:53:11.778Z,5.97
2017-11-22T21:55:39.294Z,7.97
2017-11-22T21:58:08.324Z,7.40
2017-11-22T22:00:36.603Z,6.87
2017-11-22T22:03:04.872Z,7.13
2017-11-22T22:05:33.108Z,8.73
2017-11-22T22:25:18.769Z,17.00
2017-11-22T22:27:46.272Z,16.37
2017-11-22T22:30:14.530Z,18.33
2017-11-22T22:32:42.806Z,20.77
2017-11-22T22:35:10.319Z,19.03
2017-11-22T22:37:37.931Z,17.87
2017-11-22T22:40:05.414Z,20.33
2017-11-22T22:42:33.695Z,19.73
2017-11-22T22:45:01.997Z,21.73
2017-11-22T22:47:29.498Z,19.87
2017-11-22T22:49:56.963Z,29.10
2017-11-22T23:09:41.903Z,31.80
2017-11-22T23:12:10.199Z,43.47
2017-11-22T23:14:38.478Z,31.83
2017-11-22T23:17:06.745Z,31.53
2017-11-22T23:19:34.223Z,29.27
2017-11-22T23:22:02.479Z,29.00
2017-11-22T23:24:30.728Z,26.37
2017-11-22T23:26:58.204Z,28.17
2017-11-22T23:29:25.681Z,28.33
2017-11-22T23:31:53.168Z,27.43
2017-11-22T23:34:21.456Z,26.87
2017-11-22T23:36:48.920Z,27.40
2017-11-22T23:39:16.385Z,24.97
2017-11-22T23:41:43.889Z,27.23
2017-11-22T23:44:11.372Z,22.53
2017-11-22T23:46:38.842Z,24.37
2017-11-22T23:49:07.081Z,23.63
2017-11-22T23:51:34.539Z,22.80
2017-11-22T23:54:02.763Z,26.07
2017-11-22T23:56:31.004Z,19.00
2017-11-22T23:58:59.244Z,17.93
